sensor_id;sensor_type;location;lat;lon;timestamp;pressure;altitude;pressure_sealevel;temperature;humidity
62946;BME280;52164;52.212;-1.010;2022-12-10T00:01:35;99951.66;;;-1.32;81.02
62946;BME280;52164;52.212;-1.010;2022-12-10T00:04:01;99946.79;;;-1.36;81.02
62946;BME280;52164;52.212;-1.010;2022-12-10T00:06:27;99952.59;;;-1.40;81.14
62946;BME280;52164;52.212;-1.010;2022-12-10T00:08:52;99953.50;;;-1.43;81.12
62946;BME280;52164;52.212;-1.010;2022-12-10T00:11:18;99953.52;;;-1.47;81.20
62946;BME280;52164;52.212;-1.010;2022-12-10T00:13:44;99955.31;;;-1.50;81.34
62946;BME280;52164;52.212;-1.010;2022-12-10T00:16:11;99957.16;;;-1.52;81.67
62946;BME280;52164;52.212;-1.010;2022-12-10T00:18:36;99955.36;;;-1.54;81.63
62946;BME280;52164;52.212;-1.010;2022-12-10T00:21:05;99952.27;;;-1.57;81.47
62946;BME280;52164;52.212;-1.010;2022-12-10T00:23:33;99951.19;;;-1.62;81.27
62946;BME280;52164;52.212;-1.010;2022-12-10T00:26:03;99951.55;;;-1.66;81.39
62946;BME280;52164;52.212;-1.010;2022-12-10T00:28:29;99952.79;;;-1.70;81.02
62946;BME280;52164;52.212;-1.010;2022-12-10T00:30:54;99952.42;;;-1.75;80.80
62946;BME280;52164;52.212;-1.010;2022-12-10T00:33:19;99954.10;;;-1.77;81.26
62946;BME280;52164;52.212;-1.010;2022-12-10T00:35:45;99950.46;;;-1.76;81.69
62946;BME280;52164;52.212;-1.010;2022-12-10T00:38:10;99951.11;;;-1.72;81.81
62946;BME280;52164;52.212;-1.010;2022-12-10T00:40:35;99950.51;;;-1.66;82.02
62946;BME280;52164;52.212;-1.010;2022-12-10T00:43:00;99954.96;;;-1.60;82.02
62946;BME280;52164;52.212;-1.010;2022-12-10T00:45:26;99957.48;;;-1.53;82.05
62946;BME280;52164;52.212;-1.010;2022-12-10T00:47:51;99955.24;;;-1.48;82.06
62946;BME280;52164;52.212;-1.010;2022-12-10T00:50:16;99954.67;;;-1.45;81.82
62946;BME280;52164;52.212;-1.010;2022-12-10T00:52:42;99954.39;;;-1.43;81.76
62946;BME280;52164;52.212;-1.010;2022-12-10T00:55:07;99954.48;;;-1.40;81.85
62946;BME280;52164;52.212;-1.010;2022-12-10T00:57:32;99957.17;;;-1.39;81.74
62946;BME280;52164;52.212;-1.010;2022-12-10T00:59:58;99960.01;;;-1.38;81.74
62946;BME280;52164;52.212;-1.010;2022-12-10T01:02:23;99950.97;;;-1.36;81.83
62946;BME280;52164;52.212;-1.010;2022-12-10T01:04:52;99948.05;;;-1.35;81.89
62946;BME280;52164;52.212;-1.010;2022-12-10T01:07:17;99951.34;;;-1.35;81.79
62946;BME280;52164;52.212;-1.010;2022-12-10T01:09:42;99955.49;;;-1.37;81.75
62946;BME280;52164;52.212;-1.010;2022-12-10T01:12:08;99955.69;;;-1.41;81.50
62946;BME280;52164;52.212;-1.010;2022-12-10T01:14:33;99953.55;;;-1.46;81.32
62946;BME280;52164;52.212;-1.010;2022-12-10T01:17:00;99955.34;;;-1.50;81.51
62946;BME280;52164;52.212;-1.010;2022-12-10T01:19:27;99952.42;;;-1.53;81.60
62946;BME280;52164;52.212;-1.010;2022-12-10T01:21:53;99951.94;;;-1.56;81.62
62946;BME280;52164;52.212;-1.010;2022-12-10T01:24:21;99952.66;;;-1.60;81.63
62946;BME280;52164;52.212;-1.010;2022-12-10T01:26:46;99954.25;;;-1.64;81.67
62946;BME280;52164;52.212;-1.010;2022-12-10T01:29:11;99953.54;;;-1.69;81.56
62946;BME280;52164;52.212;-1.010;2022-12-10T01:31:37;99958.95;;;-1.74;81.54
62946;BME280;52164;52.212;-1.010;2022-12-10T01:34:03;99959.09;;;-1.79;81.62
62946;BME280;52164;52.212;-1.010;2022-12-10T01:36:34;99961.90;;;-1.83;81.70
62946;BME280;52164;52.212;-1.010;2022-12-10T01:39:00;99962.34;;;-1.85;81.83
62946;BME280;52164;52.212;-1.010;2022-12-10T01:46:18;99962.70;;;-1.85;82.32
62946;BME280;52164;52.212;-1.010;2022-12-10T01:48:43;99968.61;;;-1.81;82.32
62946;BME280;52164;52.212;-1.010;2022-12-10T01:51:09;99970.72;;;-1.77;82.53
62946;BME280;52164;52.212;-1.010;2022-12-10T01:53:34;99974.21;;;-1.72;82.50
62946;BME280;52164;52.212;-1.010;2022-12-10T01:56:00;99973.84;;;-1.69;82.29
62946;BME280;52164;52.212;-1.010;2022-12-10T01:58:25;99977.34;;;-1.65;82.23
62946;BME280;52164;52.212;-1.010;2022-12-10T02:00:57;99978.91;;;-1.60;82.23
62946;BME280;52164;52.212;-1.010;2022-12-10T02:03:35;99978.05;;;-1.55;82.04
62946;BME280;52164;52.212;-1.010;2022-12-10T02:06:09;99978.58;;;-1.51;82.34
62946;BME280;52164;52.212;-1.010;2022-12-10T02:08:40;99976.94;;;-1.48;82.10
62946;BME280;52164;52.212;-1.010;2022-12-10T02:13:41;99974.23;;;-1.42;82.13
62946;BME280;52164;52.212;-1.010;2022-12-10T02:18:37;99976.08;;;-1.39;82.00
62946;BME280;52164;52.212;-1.010;2022-12-10T02:21:05;99978.70;;;-1.39;82.08
62946;BME280;52164;52.212;-1.010;2022-12-10T02:23:33;99983.73;;;-1.40;81.97
62946;BME280;52164;52.212;-1.010;2022-12-10T02:26:03;99982.63;;;-1.42;82.10
62946;BME280;52164;52.212;-1.010;2022-12-10T02:30:56;99978.13;;;-1.44;82.00
62946;BME280;52164;52.212;-1.010;2022-12-10T02:33:23;99981.08;;;-1.46;82.13
62946;BME280;52164;52.212;-1.010;2022-12-10T02:35:49;99973.91;;;-1.46;82.13
62946;BME280;52164;52.212;-1.010;2022-12-10T02:38:17;99978.96;;;-1.46;82.11
62946;BME280;52164;52.212;-1.010;2022-12-10T02:40:46;99978.55;;;-1.47;82.14
62946;BME280;52164;52.212;-1.010;2022-12-10T02:43:13;99979.20;;;-1.48;82.27
62946;BME280;52164;52.212;-1.010;2022-12-10T02:45:39;99976.19;;;-1.49;82.27
62946;BME280;52164;52.212;-1.010;2022-12-10T02:48:06;99976.09;;;-1.52;82.37
62946;BME280;52164;52.212;-1.010;2022-12-10T02:50:31;99982.85;;;-1.53;82.29
62946;BME280;52164;52.212;-1.010;2022-12-10T02:52:57;99979.43;;;-1.56;82.34
62946;BME280;52164;52.212;-1.010;2022-12-10T02:55:22;99981.71;;;-1.60;82.24
62946;BME280;52164;52.212;-1.010;2022-12-10T03:00:15;99976.76;;;-1.70;81.90
62946;BME280;52164;52.212;-1.010;2022-12-10T03:02:50;99976.93;;;-1.74;81.96
62946;BME280;52164;52.212;-1.010;2022-12-10T03:05:37;99969.02;;;-1.75;82.20
62946;BME280;52164;52.212;-1.010;2022-12-10T03:08:12;99967.41;;;-1.77;81.99
62946;BME280;52164;52.212;-1.010;2022-12-10T03:11:12;99964.73;;;-1.78;82.11
62946;BME280;52164;52.212;-1.010;2022-12-10T03:13:25;99966.27;;;-1.79;81.98
62946;BME280;52164;52.212;-1.010;2022-12-10T03:15:52;99964.23;;;-1.78;82.13
62946;BME280;52164;52.212;-1.010;2022-12-10T03:18:19;99970.19;;;-1.77;82.03
62946;BME280;52164;52.212;-1.010;2022-12-10T03:20:47;99967.62;;;-1.76;82.21
62946;BME280;52164;52.212;-1.010;2022-12-10T03:23:14;99966.86;;;-1.73;81.94
62946;BME280;52164;52.212;-1.010;2022-12-10T03:25:41;99965.08;;;-1.74;81.62
62946;BME280;52164;52.212;-1.010;2022-12-10T03:28:08;99959.80;;;-1.74;81.66
62946;BME280;52164;52.212;-1.010;2022-12-10T03:30:34;99959.35;;;-1.77;81.64
62946;BME280;52164;52.212;-1.010;2022-12-10T03:33:01;99955.02;;;-1.80;81.60
62946;BME280;52164;52.212;-1.010;2022-12-10T03:35:27;99956.09;;;-1.84;81.42
62946;BME280;52164;52.212;-1.010;2022-12-10T03:37:52;99952.95;;;-1.88;81.32
62946;BME280;52164;52.212;-1.010;2022-12-10T03:40:19;99952.88;;;-1.94;81.14
62946;BME280;52164;52.212;-1.010;2022-12-10T03:42:46;99950.56;;;-2.00;81.13
62946;BME280;52164;52.212;-1.010;2022-12-10T03:45:11;99948.25;;;-2.05;81.46
62946;BME280;52164;52.212;-1.010;2022-12-10T03:47:37;99951.50;;;-2.06;81.93
62946;BME280;52164;52.212;-1.010;2022-12-10T03:50:02;99950.46;;;-2.06;82.15
62946;BME280;52164;52.212;-1.010;2022-12-10T03:52:28;99950.54;;;-2.08;81.73
62946;BME280;52164;52.212;-1.010;2022-12-10T03:54:53;99951.48;;;-2.15;81.21
62946;BME280;52164;52.212;-1.010;2022-12-10T03:57:18;99950.05;;;-2.20;81.57
62946;BME280;52164;52.212;-1.010;2022-12-10T03:59:43;99951.77;;;-2.25;81.73
62946;BME280;52164;52.212;-1.010;2022-12-10T04:02:09;99951.09;;;-2.29;81.99
62946;BME280;52164;52.212;-1.010;2022-12-10T04:04:35;99952.41;;;-2.31;82.23
62946;BME280;52164;52.212;-1.010;2022-12-10T04:07:00;99951.80;;;-2.33;82.36
62946;BME280;52164;52.212;-1.010;2022-12-10T04:09:26;99949.81;;;-2.34;82.32
62946;BME280;52164;52.212;-1.010;2022-12-10T04:11:54;99950.84;;;-2.35;82.61
62946;BME280;52164;52.212;-1.010;2022-12-10T04:14:19;99951.79;;;-2.33;82.85
62946;BME280;52164;52.212;-1.010;2022-12-10T04:17:05;99949.52;;;-2.28;82.98
62946;BME280;52164;52.212;-1.010;2022-12-10T04:19:30;99945.82;;;-2.25;82.91
62946;BME280;52164;52.212;-1.010;2022-12-10T04:21:55;99944.13;;;-2.23;82.63
62946;BME280;52164;52.212;-1.010;2022-12-10T04:24:40;99950.44;;;-2.23;82.35
62946;BME280;52164;52.212;-1.010;2022-12-10T04:27:27;99946.99;;;-2.22;82.62
62946;BME280;52164;52.212;-1.010;2022-12-10T04:29:54;99948.83;;;-2.20;82.58
62946;BME280;52164;52.212;-1.010;2022-12-10T04:32:20;99948.48;;;-2.16;82.48
62946;BME280;52164;52.212;-1.010;2022-12-10T04:34:45;99948.80;;;-2.13;82.43
62946;BME280;52164;52.212;-1.010;2022-12-10T04:37:11;99952.80;;;-2.08;82.47
62946;BME280;52164;52.212;-1.010;2022-12-10T04:39:37;99947.91;;;-2.04;82.44
62946;BME280;52164;52.212;-1.010;2022-12-10T04:42:02;99952.70;;;-2.03;82.09
62946;BME280;52164;52.212;-1.010;2022-12-10T04:44:28;99957.85;;;-2.05;81.32
62946;BME280;52164;52.212;-1.010;2022-12-10T04:46:53;99960.79;;;-2.10;81.21
62946;BME280;52164;52.212;-1.010;2022-12-10T04:49:18;99968.18;;;-2.13;81.57
62946;BME280;52164;52.212;-1.010;2022-12-10T04:51:44;99970.14;;;-2.17;81.60
62946;BME280;52164;52.212;-1.010;2022-12-10T04:54:09;99967.45;;;-2.18;81.97
62946;BME280;52164;52.212;-1.010;2022-12-10T04:56:35;99971.43;;;-2.19;82.28
62946;BME280;52164;52.212;-1.010;2022-12-10T04:59:05;99968.98;;;-2.19;82.32
62946;BME280;52164;52.212;-1.010;2022-12-10T05:01:31;99963.87;;;-2.20;82.48
62946;BME280;52164;52.212;-1.010;2022-12-10T05:03:58;99967.66;;;-2.21;82.33
62946;BME280;52164;52.212;-1.010;2022-12-10T05:06:23;99961.84;;;-2.23;82.55
62946;BME280;52164;52.212;-1.010;2022-12-10T05:08:48;99957.41;;;-2.24;82.70
62946;BME280;52164;52.212;-1.010;2022-12-10T05:11:15;99956.34;;;-2.24;82.83
62946;BME280;52164;52.212;-1.010;2022-12-10T05:13:41;99958.35;;;-2.26;82.81
62946;BME280;52164;52.212;-1.010;2022-12-10T05:16:07;99952.52;;;-2.28;82.80
62946;BME280;52164;52.212;-1.010;2022-12-10T05:18:32;99955.64;;;-2.29;82.81
62946;BME280;52164;52.212;-1.010;2022-12-10T05:20:58;99954.39;;;-2.29;82.83
62946;BME280;52164;52.212;-1.010;2022-12-10T05:23:24;99953.70;;;-2.29;82.80
62946;BME280;52164;52.212;-1.010;2022-12-10T05:26:00;99953.59;;;-2.27;82.86
62946;BME280;52164;52.212;-1.010;2022-12-10T05:28:26;99952.11;;;-2.25;83.15
62946;BME280;52164;52.212;-1.010;2022-12-10T05:30:52;99948.14;;;-2.20;83.18
62946;BME280;52164;52.212;-1.010;2022-12-10T05:33:17;99948.33;;;-2.15;83.07
62946;BME280;52164;52.212;-1.010;2022-12-10T05:35:42;99949.39;;;-2.11;83.04
62946;BME280;52164;52.212;-1.010;2022-12-10T05:38:08;99948.15;;;-2.07;83.01
62946;BME280;52164;52.212;-1.010;2022-12-10T05:40:35;99950.11;;;-2.02;82.93
62946;BME280;52164;52.212;-1.010;2022-12-10T05:43:01;99950.83;;;-1.97;82.97
62946;BME280;52164;52.212;-1.010;2022-12-10T05:45:26;99948.14;;;-1.94;83.00
62946;BME280;52164;52.212;-1.010;2022-12-10T05:47:51;99948.62;;;-1.91;82.85
62946;BME280;52164;52.212;-1.010;2022-12-10T05:50:17;99950.77;;;-1.90;82.66
62946;BME280;52164;52.212;-1.010;2022-12-10T05:52:42;99946.73;;;-1.90;82.51
62946;BME280;52164;52.212;-1.010;2022-12-10T05:55:07;99947.68;;;-1.93;82.21
62946;BME280;52164;52.212;-1.010;2022-12-10T05:57:33;99950.68;;;-1.97;82.23
62946;BME280;52164;52.212;-1.010;2022-12-10T05:59:58;99950.34;;;-2.00;82.22
62946;BME280;52164;52.212;-1.010;2022-12-10T06:02:24;99951.21;;;-2.05;82.23
62946;BME280;52164;52.212;-1.010;2022-12-10T06:04:49;99953.48;;;-2.09;82.33
62946;BME280;52164;52.212;-1.010;2022-12-10T06:07:15;99950.91;;;-2.12;82.55
62946;BME280;52164;52.212;-1.010;2022-12-10T06:09:40;99954.85;;;-2.14;82.67
62946;BME280;52164;52.212;-1.010;2022-12-10T06:12:05;99952.66;;;-2.16;82.59
62946;BME280;52164;52.212;-1.010;2022-12-10T06:14:31;99957.30;;;-2.18;82.86
62946;BME280;52164;52.212;-1.010;2022-12-10T06:16:56;99954.04;;;-2.21;82.55
62946;BME280;52164;52.212;-1.010;2022-12-10T06:19:21;99954.42;;;-2.29;82.30
62946;BME280;52164;52.212;-1.010;2022-12-10T06:21:46;99955.54;;;-2.35;82.39
62946;BME280;52164;52.212;-1.010;2022-12-10T06:24:11;99954.03;;;-2.42;82.28
62946;BME280;52164;52.212;-1.010;2022-12-10T06:26:37;99953.06;;;-2.48;82.22
62946;BME280;52164;52.212;-1.010;2022-12-10T06:29:02;99954.06;;;-2.53;82.39
62946;BME280;52164;52.212;-1.010;2022-12-10T06:31:29;99952.66;;;-2.57;82.52
62946;BME280;52164;52.212;-1.010;2022-12-10T06:33:55;99947.30;;;-2.60;82.63
62946;BME280;52164;52.212;-1.010;2022-12-10T06:36:20;99949.11;;;-2.63;82.54
62946;BME280;52164;52.212;-1.010;2022-12-10T06:38:45;99950.28;;;-2.68;82.31
62946;BME280;52164;52.212;-1.010;2022-12-10T06:41:16;99953.45;;;-2.71;82.26
62946;BME280;52164;52.212;-1.010;2022-12-10T06:43:43;99957.45;;;-2.76;81.80
62946;BME280;52164;52.212;-1.010;2022-12-10T06:46:10;99962.30;;;-2.80;81.70
62946;BME280;52164;52.212;-1.010;2022-12-10T06:48:36;99960.86;;;-2.81;82.24
62946;BME280;52164;52.212;-1.010;2022-12-10T06:51:02;99963.77;;;-2.79;82.02
62946;BME280;52164;52.212;-1.010;2022-12-10T06:53:27;99961.36;;;-2.78;82.03
62946;BME280;52164;52.212;-1.010;2022-12-10T06:55:52;99965.23;;;-2.74;82.63
62946;BME280;52164;52.212;-1.010;2022-12-10T06:58:17;99965.54;;;-2.71;82.26
62946;BME280;52164;52.212;-1.010;2022-12-10T07:00:43;99969.02;;;-2.67;82.30
62946;BME280;52164;52.212;-1.010;2022-12-10T07:03:08;99968.33;;;-2.63;82.56
62946;BME280;52164;52.212;-1.010;2022-12-10T07:05:33;99970.95;;;-2.59;82.43
62946;BME280;52164;52.212;-1.010;2022-12-10T07:07:58;99968.11;;;-2.59;81.86
62946;BME280;52164;52.212;-1.010;2022-12-10T07:10:24;99964.88;;;-2.62;81.56
62946;BME280;52164;52.212;-1.010;2022-12-10T07:12:49;99964.70;;;-2.66;81.21
62946;BME280;52164;52.212;-1.010;2022-12-10T07:15:14;99962.96;;;-2.70;81.36
62946;BME280;52164;52.212;-1.010;2022-12-10T07:17:40;99966.45;;;-2.74;81.28
62946;BME280;52164;52.212;-1.010;2022-12-10T07:20:05;99973.63;;;-2.81;80.91
62946;BME280;52164;52.212;-1.010;2022-12-10T07:22:30;99968.88;;;-2.90;80.68
62946;BME280;52164;52.212;-1.010;2022-12-10T07:24:56;99965.66;;;-2.95;80.86
62946;BME280;52164;52.212;-1.010;2022-12-10T07:27:21;99966.63;;;-2.97;81.12
62946;BME280;52164;52.212;-1.010;2022-12-10T07:29:46;99966.99;;;-3.01;80.80
62946;BME280;52164;52.212;-1.010;2022-12-10T07:32:12;99966.12;;;-3.04;80.70
62946;BME280;52164;52.212;-1.010;2022-12-10T07:34:37;99964.62;;;-3.07;81.07
62946;BME280;52164;52.212;-1.010;2022-12-10T07:37:02;99966.50;;;-3.07;81.46
62946;BME280;52164;52.212;-1.010;2022-12-10T07:39:27;99964.79;;;-3.07;81.96
62946;BME280;52164;52.212;-1.010;2022-12-10T07:41:53;99967.33;;;-3.05;82.35
62946;BME280;52164;52.212;-1.010;2022-12-10T07:44:22;99966.04;;;-3.03;82.58
62946;BME280;52164;52.212;-1.010;2022-12-10T07:46:48;99968.02;;;-3.01;82.66
62946;BME280;52164;52.212;-1.010;2022-12-10T07:49:14;99962.74;;;-3.02;82.22
62946;BME280;52164;52.212;-1.010;2022-12-10T07:51:39;99962.00;;;-3.07;81.88
62946;BME280;52164;52.212;-1.010;2022-12-10T07:54:05;99966.33;;;-3.11;81.79
62946;BME280;52164;52.212;-1.010;2022-12-10T07:56:30;99967.84;;;-3.16;81.32
62946;BME280;52164;52.212;-1.010;2022-12-10T07:58:55;99970.73;;;-3.22;81.37
62946;BME280;52164;52.212;-1.010;2022-12-10T08:01:24;99974.48;;;-3.24;81.37
62946;BME280;52164;52.212;-1.010;2022-12-10T08:03:50;99971.59;;;-3.22;81.82
62946;BME280;52164;52.212;-1.010;2022-12-10T08:06:16;99968.16;;;-3.21;81.73
62946;BME280;52164;52.212;-1.010;2022-12-10T08:08:42;99965.92;;;-3.20;81.43
62946;BME280;52164;52.212;-1.010;2022-12-10T08:11:08;99971.88;;;-3.20;81.03
62946;BME280;52164;52.212;-1.010;2022-12-10T08:13:33;99976.17;;;-3.21;80.91
62946;BME280;52164;52.212;-1.010;2022-12-10T08:16:07;99978.96;;;-3.21;81.10
62946;BME280;52164;52.212;-1.010;2022-12-10T08:18:33;99983.17;;;-3.21;81.16
62946;BME280;52164;52.212;-1.010;2022-12-10T08:21:02;99987.96;;;-3.19;81.31
62946;BME280;52164;52.212;-1.010;2022-12-10T08:23:28;99987.27;;;-3.19;81.13
62946;BME280;52164;52.212;-1.010;2022-12-10T08:25:53;99988.41;;;-3.17;81.34
62946;BME280;52164;52.212;-1.010;2022-12-10T08:28:18;99992.16;;;-3.15;81.34
62946;BME280;52164;52.212;-1.010;2022-12-10T08:30:45;99988.86;;;-3.15;80.86
62946;BME280;52164;52.212;-1.010;2022-12-10T08:33:10;99987.69;;;-3.14;81.23
62946;BME280;52164;52.212;-1.010;2022-12-10T08:35:36;99991.41;;;-3.13;81.21
62946;BME280;52164;52.212;-1.010;2022-12-10T08:38:01;99992.02;;;-3.11;81.36
62946;BME280;52164;52.212;-1.010;2022-12-10T08:40:26;99995.11;;;-3.08;81.65
62946;BME280;52164;52.212;-1.010;2022-12-10T08:42:51;99995.72;;;-3.03;82.03
62946;BME280;52164;52.212;-1.010;2022-12-10T08:45:17;99992.35;;;-2.96;82.30
62946;BME280;52164;52.212;-1.010;2022-12-10T08:47:43;99995.45;;;-2.89;82.30
62946;BME280;52164;52.212;-1.010;2022-12-10T08:50:08;99996.53;;;-2.85;82.33
62946;BME280;52164;52.212;-1.010;2022-12-10T08:52:33;99999.91;;;-2.79;82.33
62946;BME280;52164;52.212;-1.010;2022-12-10T08:54:58;100000.13;;;-2.75;82.41
62946;BME280;52164;52.212;-1.010;2022-12-10T08:57:24;100004.52;;;-2.70;82.59
62946;BME280;52164;52.212;-1.010;2022-12-10T08:59:49;100001.42;;;-2.65;82.38
62946;BME280;52164;52.212;-1.010;2022-12-10T09:02:14;99997.56;;;-2.61;82.21
62946;BME280;52164;52.212;-1.010;2022-12-10T09:04:40;99993.45;;;-2.56;82.64
62946;BME280;52164;52.212;-1.010;2022-12-10T09:07:06;99998.34;;;-2.52;82.41
62946;BME280;52164;52.212;-1.010;2022-12-10T09:09:31;99992.77;;;-2.47;82.61
62946;BME280;52164;52.212;-1.010;2022-12-10T09:11:57;99993.13;;;-2.43;82.66
62946;BME280;52164;52.212;-1.010;2022-12-10T09:14:22;99993.66;;;-2.39;82.52
62946;BME280;52164;52.212;-1.010;2022-12-10T09:16:49;99994.40;;;-2.34;82.33
62946;BME280;52164;52.212;-1.010;2022-12-10T09:19:14;99997.77;;;-2.29;82.17
62946;BME280;52164;52.212;-1.010;2022-12-10T09:21:39;100002.64;;;-2.21;82.58
62946;BME280;52164;52.212;-1.010;2022-12-10T09:24:05;99997.44;;;-2.11;82.69
62946;BME280;52164;52.212;-1.010;2022-12-10T09:26:30;99995.48;;;-2.00;82.75
62946;BME280;52164;52.212;-1.010;2022-12-10T09:28:55;99994.07;;;-1.87;82.63
62946;BME280;52164;52.212;-1.010;2022-12-10T09:31:22;99993.17;;;-1.75;82.50
62946;BME280;52164;52.212;-1.010;2022-12-10T09:33:48;99994.30;;;-1.65;81.95
62946;BME280;52164;52.212;-1.010;2022-12-10T09:36:14;99999.84;;;-1.57;81.69
62946;BME280;52164;52.212;-1.010;2022-12-10T09:38:41;100004.60;;;-1.52;81.28
62946;BME280;52164;52.212;-1.010;2022-12-10T09:46:10;100002.33;;;-1.39;81.28
62946;BME280;52164;52.212;-1.010;2022-12-10T09:46:55;100003.64;;;-1.32;81.54
62946;BME280;52164;52.212;-1.010;2022-12-10T09:49:55;100007.85;;;-1.23;81.54
62946;BME280;52164;52.212;-1.010;2022-12-10T09:52:08;100006.90;;;-1.16;81.26
62946;BME280;52164;52.212;-1.010;2022-12-10T09:54:42;100009.88;;;-1.12;81.27
62946;BME280;52164;52.212;-1.010;2022-12-10T09:57:10;100017.79;;;-1.06;81.47
62946;BME280;52164;52.212;-1.010;2022-12-10T09:59:40;100010.84;;;-1.00;81.36
62946;BME280;52164;52.212;-1.010;2022-12-10T10:02:16;100013.18;;;-0.94;81.23
62946;BME280;52164;52.212;-1.010;2022-12-10T10:04:45;100010.53;;;-0.90;81.22
62946;BME280;52164;52.212;-1.010;2022-12-10T10:07:14;100013.92;;;-0.83;81.29
62946;BME280;52164;52.212;-1.010;2022-12-10T10:09:42;100014.46;;;-0.79;81.03
62946;BME280;52164;52.212;-1.010;2022-12-10T10:12:10;100017.98;;;-0.73;81.03
62946;BME280;52164;52.212;-1.010;2022-12-10T10:14:37;100014.98;;;-0.69;81.04
62946;BME280;52164;52.212;-1.010;2022-12-10T10:17:03;100011.98;;;-0.65;80.98
62946;BME280;52164;52.212;-1.010;2022-12-10T10:19:33;100010.77;;;-0.60;80.92
62946;BME280;52164;52.212;-1.010;2022-12-10T10:22:00;100006.83;;;-0.57;80.77
62946;BME280;52164;52.212;-1.010;2022-12-10T10:24:34;100010.48;;;-0.53;80.92
62946;BME280;52164;52.212;-1.010;2022-12-10T10:27:11;100005.21;;;-0.48;80.95
62946;BME280;52164;52.212;-1.010;2022-12-10T10:29:37;99998.71;;;-0.44;81.19
62946;BME280;52164;52.212;-1.010;2022-12-10T10:33:08;100002.19;;;-0.40;81.26
62946;BME280;52164;52.212;-1.010;2022-12-10T10:34:56;100003.41;;;-0.35;81.27
62946;BME280;52164;52.212;-1.010;2022-12-10T10:37:25;100000.98;;;-0.30;81.27
62946;BME280;52164;52.212;-1.010;2022-12-10T10:39:53;100003.63;;;-0.24;81.33
62946;BME280;52164;52.212;-1.010;2022-12-10T10:42:52;100003.29;;;-0.19;81.23
62946;BME280;52164;52.212;-1.010;2022-12-10T10:45:06;100007.00;;;-0.13;81.18
62946;BME280;52164;52.212;-1.010;2022-12-10T10:47:52;100007.91;;;-0.07;80.93
62946;BME280;52164;52.212;-1.010;2022-12-10T10:50:28;100012.51;;;-0.01;81.10
62946;BME280;52164;52.212;-1.010;2022-12-10T10:52:53;100016.02;;;0.04;80.93
62946;BME280;52164;52.212;-1.010;2022-12-10T10:55:36;100016.58;;;0.11;80.94
62946;BME280;52164;52.212;-1.010;2022-12-10T10:58:03;100016.50;;;0.19;80.83
62946;BME280;52164;52.212;-1.010;2022-12-10T11:00:29;100013.75;;;0.26;81.01
62946;BME280;52164;52.212;-1.010;2022-12-10T11:02:54;100016.66;;;0.34;80.97
62946;BME280;52164;52.212;-1.010;2022-12-10T11:05:22;100015.91;;;0.44;80.83
62946;BME280;52164;52.212;-1.010;2022-12-10T11:07:49;100014.65;;;0.54;80.80
62946;BME280;52164;52.212;-1.010;2022-12-10T11:10:22;100011.84;;;0.64;80.68
62946;BME280;52164;52.212;-1.010;2022-12-10T11:13:25;100007.84;;;0.76;80.30
62946;BME280;52164;52.212;-1.010;2022-12-10T11:17:58;100002.14;;;0.97;80.00
62946;BME280;52164;52.212;-1.010;2022-12-10T11:20:27;100001.64;;;1.04;79.89
62946;BME280;52164;52.212;-1.010;2022-12-10T11:22:54;100000.05;;;1.10;79.89
62946;BME280;52164;52.212;-1.010;2022-12-10T11:25:23;99999.48;;;1.14;79.56
62946;BME280;52164;52.212;-1.010;2022-12-10T11:27:57;99995.02;;;1.17;79.42
62946;BME280;52164;52.212;-1.010;2022-12-10T11:30:25;99992.61;;;1.19;79.30
62946;BME280;52164;52.212;-1.010;2022-12-10T11:32:56;99990.17;;;1.20;79.08
62946;BME280;52164;52.212;-1.010;2022-12-10T11:35:33;99987.23;;;1.21;79.04
62946;BME280;52164;52.212;-1.010;2022-12-10T11:38:09;99986.02;;;1.23;79.09
62946;BME280;52164;52.212;-1.010;2022-12-10T11:40:44;99986.23;;;1.24;79.11
62946;BME280;52164;52.212;-1.010;2022-12-10T11:43:20;99987.19;;;1.26;79.30
62946;BME280;52164;52.212;-1.010;2022-12-10T11:45:52;99988.49;;;1.29;79.16
62946;BME280;52164;52.212;-1.010;2022-12-10T11:50:36;99983.67;;;1.33;79.35
62946;BME280;52164;52.212;-1.010;2022-12-10T11:51:10;99981.66;;;1.36;79.39
62946;BME280;52164;52.212;-1.010;2022-12-10T11:56:32;99982.55;;;1.43;79.38
62946;BME280;52164;52.212;-1.010;2022-12-10T12:01:29;99981.42;;;1.53;79.13
62946;BME280;52164;52.212;-1.010;2022-12-10T12:04:06;99978.61;;;1.59;79.10
62946;BME280;52164;52.212;-1.010;2022-12-10T12:06:58;99975.66;;;1.67;79.38
62946;BME280;52164;52.212;-1.010;2022-12-10T12:10:34;99978.90;;;1.76;79.33
62946;BME280;52164;52.212;-1.010;2022-12-10T12:12:14;99978.44;;;1.85;79.32
62946;BME280;52164;52.212;-1.010;2022-12-10T12:14:46;99974.59;;;1.93;79.01
62946;BME280;52164;52.212;-1.010;2022-12-10T12:17:16;99975.64;;;2.00;78.87
62946;BME280;52164;52.212;-1.010;2022-12-10T12:19:46;99977.52;;;2.04;78.61
62946;BME280;52164;52.212;-1.010;2022-12-10T12:22:15;99975.33;;;2.08;78.44
62946;BME280;52164;52.212;-1.010;2022-12-10T12:24:41;99978.42;;;2.12;78.35
62946;BME280;52164;52.212;-1.010;2022-12-10T12:27:29;99976.55;;;2.14;78.12
62946;BME280;52164;52.212;-1.010;2022-12-10T12:32:40;99978.77;;;2.19;78.11
62946;BME280;52164;52.212;-1.010;2022-12-10T12:35:10;99977.94;;;2.21;78.27
62946;BME280;52164;52.212;-1.010;2022-12-10T12:37:40;99980.16;;;2.25;77.98
62946;BME280;52164;52.212;-1.010;2022-12-10T12:40:11;99982.52;;;2.27;77.98
62946;BME280;52164;52.212;-1.010;2022-12-10T12:42:40;99982.40;;;2.31;78.04
62946;BME280;52164;52.212;-1.010;2022-12-10T12:47:38;99977.33;;;2.39;78.02
62946;BME280;52164;52.212;-1.010;2022-12-10T12:52:26;99974.80;;;2.43;78.13
62946;BME280;52164;52.212;-1.010;2022-12-10T12:52:53;99970.71;;;2.50;78.07
62946;BME280;52164;52.212;-1.010;2022-12-10T12:55:22;99967.69;;;2.56;77.72
62946;BME280;52164;52.212;-1.010;2022-12-10T12:58:00;99963.82;;;2.63;77.88
62946;BME280;52164;52.212;-1.010;2022-12-10T13:00:29;99962.55;;;2.70;77.87
62946;BME280;52164;52.212;-1.010;2022-12-10T13:05:46;99955.61;;;2.82;77.69
62946;BME280;52164;52.212;-1.010;2022-12-10T13:08:23;99954.11;;;2.87;77.50
62946;BME280;52164;52.212;-1.010;2022-12-10T13:10:51;99953.83;;;2.90;76.88
62946;BME280;52164;52.212;-1.010;2022-12-10T13:15:42;99954.48;;;2.95;77.19
62946;BME280;52164;52.212;-1.010;2022-12-10T13:18:20;99956.98;;;2.97;76.57
62946;BME280;52164;52.212;-1.010;2022-12-10T13:20:46;99955.44;;;2.99;76.75
62946;BME280;52164;52.212;-1.010;2022-12-10T13:25:37;99953.19;;;3.01;76.69
62946;BME280;52164;52.212;-1.010;2022-12-10T13:25:58;99955.34;;;3.03;76.49
62946;BME280;52164;52.212;-1.010;2022-12-10T13:31:22;99956.41;;;3.04;76.76
62946;BME280;52164;52.212;-1.010;2022-12-10T13:33:51;99962.09;;;3.05;76.54